createdAt,value
2022-09-23T00:00:00.338Z,63.5
2022-09-23T00:01:00.587Z,63.6
2022-09-23T00:02:00.467Z,63.4
2022-09-23T00:03:00.395Z,63.4
2022-09-23T00:04:00.315Z,63.3
2022-09-23T00:05:00.338Z,63.3
2022-09-23T00:06:00.296Z,63.4
2022-09-23T00:07:00.526Z,63.4
2022-09-23T00:08:00.368Z,63.2
2022-09-23T00:09:00.282Z,63.0
2022-09-23T00:10:00.290Z,63.1
2022-09-23T00:11:00.319Z,63.0
2022-09-23T00:12:00.340Z,62.9
2022-09-23T00:13:00.549Z,63.0
2022-09-23T00:14:00.485Z,62.6
2022-09-23T00:15:00.288Z,62.5
2022-09-23T00:16:00.307Z,62.3
2022-09-23T00:17:00.448Z,61.8
2022-09-23T00:18:00.296Z,61.4
2022-09-23T00:19:00.495Z,61.0
2022-09-23T00:20:00.329Z,60.6
2022-09-23T00:21:00.298Z,60.6
2022-09-23T00:22:00.308Z,60.7
2022-09-23T00:23:00.293Z,60.3
2022-09-23T00:24:00.311Z,60.1
2022-09-23T00:25:00.486Z,59.7
2022-09-23T00:26:00.340Z,59.5
2022-09-23T00:27:00.313Z,59.6
2022-09-23T00:28:00.307Z,59.5
2022-09-23T00:29:00.528Z,59.6
2022-09-23T00:30:00.361Z,59.4
2022-09-23T00:31:00.607Z,59.3
2022-09-23T00:32:00.302Z,59.4
2022-09-23T00:33:00.300Z,59.4
2022-09-23T00:34:00.317Z,59.4
2022-09-23T00:35:00.351Z,59.3
2022-09-23T00:36:00.317Z,59.2
2022-09-23T00:37:00.460Z,59.1
2022-09-23T00:38:00.330Z,59.2
2022-09-23T00:39:00.358Z,59.2
2022-09-23T00:40:00.298Z,59.2
2022-09-23T00:41:00.312Z,59.0
2022-09-23T00:42:00.332Z,58.5
2022-09-23T00:43:00.561Z,58.2
2022-09-23T00:44:00.544Z,57.8
2022-09-23T00:45:00.304Z,57.6
2022-09-23T00:46:00.366Z,57.8
2022-09-23T00:47:00.299Z,57.6
2022-09-23T00:48:00.298Z,57.6
2022-09-23T00:49:00.503Z,57.4
2022-09-23T00:50:00.306Z,57.1
2022-09-23T00:51:00.296Z,57.0
2022-09-23T00:52:00.289Z,56.7
2022-09-23T00:53:00.305Z,56.6
2022-09-23T00:54:00.295Z,56.6
2022-09-23T00:55:00.504Z,56.4
2022-09-23T00:56:00.313Z,56.2
2022-09-23T00:57:00.304Z,56.2
2022-09-23T00:58:00.310Z,56.2
2022-09-23T00:59:00.434Z,56.3
2022-09-23T01:00:00.307Z,56.6
2022-09-23T01:01:00.533Z,56.7
2022-09-23T01:02:00.396Z,56.7
2022-09-23T01:03:00.310Z,56.6
2022-09-23T01:04:00.318Z,56.3
2022-09-23T01:05:00.283Z,56.2
2022-09-23T01:06:00.303Z,56.1
2022-09-23T01:07:00.403Z,55.9
2022-09-23T01:08:00.295Z,55.9
2022-09-23T01:09:00.305Z,56.0
2022-09-23T01:10:00.298Z,55.8
2022-09-23T01:11:00.312Z,55.7
2022-09-23T01:12:00.288Z,55.8
2022-09-23T01:13:00.461Z,55.9
2022-09-23T01:14:00.539Z,56.0
2022-09-23T01:15:00.298Z,55.9
2022-09-23T01:16:00.289Z,55.7
2022-09-23T01:17:00.372Z,55.4
2022-09-23T01:18:00.309Z,55.5
2022-09-23T01:19:00.434Z,55.6
2022-09-23T01:20:00.301Z,55.7
2022-09-23T01:21:00.314Z,55.7
2022-09-23T01:22:00.290Z,55.7
2022-09-23T01:23:00.293Z,55.8
2022-09-23T01:24:00.301Z,55.6
2022-09-23T01:25:00.422Z,55.6
2022-09-23T01:26:00.296Z,55.5
2022-09-23T01:27:00.273Z,55.5
2022-09-23T01:28:00.305Z,55.6
2022-09-23T01:29:00.481Z,56.0
2022-09-23T01:30:00.285Z,56.2
2022-09-23T01:31:00.559Z,56.3
2022-09-23T01:32:00.282Z,56.6
2022-09-23T01:33:00.315Z,56.9
2022-09-23T01:34:00.282Z,57.0
2022-09-23T01:35:00.292Z,57.1
2022-09-23T01:36:00.283Z,57.4
2022-09-23T01:37:00.433Z,57.4
2022-09-23T01:38:00.311Z,57.5
2022-09-23T01:39:00.401Z,57.4
2022-09-23T01:40:00.289Z,57.2
2022-09-23T01:41:00.307Z,57.2
2022-09-23T01:42:00.295Z,57.3
2022-09-23T01:43:00.542Z,57.4
2022-09-23T01:44:00.343Z,57.6
2022-09-23T01:45:00.329Z,57.9
2022-09-23T01:46:00.310Z,57.8
2022-09-23T01:47:00.311Z,57.9
2022-09-23T01:48:00.374Z,58.0
2022-09-23T01:49:00.558Z,57.9
2022-09-23T01:50:00.309Z,58.0
2022-09-23T01:51:00.339Z,58.0
2022-09-23T01:52:00.393Z,58.2
2022-09-23T01:53:00.303Z,58.2
2022-09-23T01:54:00.301Z,58.1
2022-09-23T01:55:00.468Z,58.4
2022-09-23T01:56:00.317Z,58.5
2022-09-23T01:57:00.350Z,58.6
2022-09-23T01:58:00.373Z,58.6
2022-09-23T01:59:00.521Z,58.7
2022-09-23T02:00:00.380Z,59.0
2022-09-23T02:01:00.502Z,59.0
2022-09-23T02:02:00.400Z,58.9
2022-09-23T02:03:00.316Z,58.9
2022-09-23T02:04:00.301Z,58.9
2022-09-23T02:05:00.299Z,58.8
2022-09-23T02:06:00.310Z,58.6
2022-09-23T02:07:00.439Z,58.6
2022-09-23T02:08:00.293Z,58.5
2022-09-23T02:09:00.323Z,58.6
2022-09-23T02:10:00.296Z,58.8
2022-09-23T02:11:00.327Z,58.9
2022-09-23T02:12:00.291Z,58.7
2022-09-23T02:13:00.464Z,58.7
2022-09-23T02:14:00.418Z,59.0
2022-09-23T02:15:00.312Z,58.9
2022-09-23T02:16:00.281Z,58.7
2022-09-23T02:17:00.347Z,58.6
2022-09-23T02:18:00.302Z,58.5
2022-09-23T02:19:00.493Z,58.6
2022-09-23T02:20:00.294Z,58.4
2022-09-23T02:21:00.302Z,58.5
2022-09-23T02:22:00.282Z,58.6
2022-09-23T02:23:00.280Z,58.5
2022-09-23T02:24:00.343Z,58.6
2022-09-23T02:25:00.523Z,58.4
2022-09-23T02:26:00.361Z,58.5
2022-09-23T02:27:00.371Z,58.4
2022-09-23T02:28:00.322Z,58.3
2022-09-23T02:29:00.441Z,58.1
2022-09-23T02:30:00.299Z,58.2
2022-09-23T02:31:00.574Z,58.4
2022-09-23T02:32:00.357Z,58.3
2022-09-23T02:33:00.313Z,58.2
2022-09-23T02:34:00.285Z,58.2
2022-09-23T02:35:00.299Z,58.3
2022-09-23T02:36:00.315Z,58.3
2022-09-23T02:37:00.483Z,58.3
2022-09-23T02:38:00.311Z,58.3
2022-09-23T02:39:00.304Z,58.5
2022-09-23T02:40:00.323Z,58.3
2022-09-23T02:41:00.360Z,58.3
2022-09-23T02:42:00.304Z,58.2
2022-09-23T02:43:00.452Z,58.0
2022-09-23T02:44:00.344Z,58.0
2022-09-23T02:45:00.524Z,58.1
2022-09-23T02:46:00.344Z,58.2
2022-09-23T02:47:00.326Z,58.4
2022-09-23T02:48:00.312Z,58.5
2022-09-23T02:49:00.462Z,58.3
2022-09-23T02:50:00.343Z,58.2
2022-09-23T02:51:00.274Z,58.3
2022-09-23T02:52:00.378Z,58.4
2022-09-23T02:53:00.300Z,58.2
2022-09-23T02:54:00.296Z,58.0
2022-09-23T02:55:00.455Z,57.8
2022-09-23T02:56:00.292Z,57.2
2022-09-23T02:57:00.281Z,57.2
2022-09-23T02:58:00.284Z,57.0
2022-09-23T02:59:00.312Z,57.1
2022-09-23T03:00:00.322Z,57.0
2022-09-23T03:01:00.435Z,57.1
2022-09-23T03:02:00.362Z,56.7
2022-09-23T03:03:00.298Z,56.5
2022-09-23T03:04:00.297Z,56.6
2022-09-23T03:05:00.312Z,56.5
2022-09-23T03:06:00.310Z,56.1
2022-09-23T03:07:00.534Z,56.2
2022-09-23T03:08:00.298Z,56.5
2022-09-23T03:09:00.379Z,56.2
2022-09-23T03:10:00.368Z,56.3
2022-09-23T03:11:00.348Z,56.2
2022-09-23T03:12:00.322Z,55.7
2022-09-23T03:13:00.555Z,55.7
2022-09-23T03:14:00.292Z,56.4
2022-09-23T03:15:00.344Z,56.7
2022-09-23T03:16:00.524Z,57.4
2022-09-23T03:17:00.309Z,57.6
2022-09-23T03:18:00.310Z,57.7
2022-09-23T03:19:00.455Z,58.2
2022-09-23T03:20:00.305Z,58.8
2022-09-23T03:21:00.338Z,59.8
2022-09-23T03:22:00.303Z,60.4
2022-09-23T03:23:00.298Z,59.8
2022-09-23T03:24:00.295Z,59.6
2022-09-23T03:25:00.439Z,59.7
2022-09-23T03:26:00.316Z,59.9
2022-09-23T03:27:00.295Z,59.2
2022-09-23T03:28:00.291Z,58.9
2022-09-23T03:29:00.319Z,58.6
2022-09-23T03:30:00.326Z,58.6
2022-09-23T03:31:00.518Z,58.7
2022-09-23T03:32:00.380Z,58.7
2022-09-23T03:33:00.289Z,58.5
2022-09-23T03:34:00.296Z,58.5
2022-09-23T03:35:00.312Z,58.4
2022-09-23T03:36:00.299Z,58.4
2022-09-23T03:37:00.494Z,58.4
2022-09-23T03:38:00.309Z,58.5
2022-09-23T03:39:00.299Z,58.2
2022-09-23T03:40:00.295Z,58.1
2022-09-23T03:41:00.308Z,58.1
2022-09-23T03:42:00.305Z,57.9
2022-09-23T03:43:00.413Z,57.7
2022-09-23T03:44:00.282Z,57.4
2022-09-23T03:45:00.312Z,57.2
2022-09-23T03:46:00.606Z,57.1
2022-09-23T03:47:00.291Z,57.1
2022-09-23T03:48:00.298Z,57.0
2022-09-23T03:49:00.592Z,56.9
2022-09-23T03:50:00.303Z,56.8
2022-09-23T03:51:00.337Z,56.6
2022-09-23T03:52:00.313Z,56.6
2022-09-23T03:53:00.395Z,56.4
2022-09-23T03:54:00.286Z,56.1
2022-09-23T03:55:00.539Z,55.7
2022-09-23T03:56:00.282Z,55.3
2022-09-23T03:57:00.309Z,54.9
2022-09-23T03:58:00.315Z,54.6
2022-09-23T03:59:00.332Z,54.4
2022-09-23T04:00:00.301Z,54.4
2022-09-23T04:01:00.687Z,54.5
2022-09-23T04:02:00.437Z,54.7
2022-09-23T04:03:00.367Z,54.8
2022-09-23T04:04:00.285Z,54.2
2022-09-23T04:05:00.355Z,54.5
2022-09-23T04:06:00.332Z,54.6
2022-09-23T04:07:00.621Z,54.4
2022-09-23T04:08:00.320Z,54.6
2022-09-23T04:09:00.295Z,54.3
2022-09-23T04:10:00.357Z,54.5
2022-09-23T04:11:00.289Z,54.2
2022-09-23T04:12:00.291Z,54.0
2022-09-23T04:13:00.591Z,53.8
2022-09-23T04:14:00.279Z,53.5
2022-09-23T04:15:00.300Z,53.1
2022-09-23T04:16:00.555Z,52.5
2022-09-23T04:17:00.412Z,52.2
2022-09-23T04:18:00.303Z,52.2
2022-09-23T04:19:00.416Z,52.0
2022-09-23T04:20:00.314Z,51.7
2022-09-23T04:21:00.341Z,51.2
2022-09-23T04:22:00.325Z,50.9
2022-09-23T04:23:00.316Z,50.4
2022-09-23T04:24:00.371Z,50.4
2022-09-23T04:25:00.448Z,50.3
2022-09-23T04:26:00.355Z,50.3
2022-09-23T04:27:00.327Z,50.0
2022-09-23T04:28:00.321Z,49.8
2022-09-23T04:29:00.329Z,50.4
2022-09-23T04:30:00.372Z,50.1
2022-09-23T04:31:00.462Z,50.3
2022-09-23T04:32:00.550Z,50.6
2022-09-23T04:33:00.300Z,51.0
2022-09-23T04:34:00.296Z,50.9
2022-09-23T04:35:00.299Z,51.0
2022-09-23T04:36:00.303Z,50.9
2022-09-23T04:37:00.364Z,50.8
2022-09-23T04:38:00.304Z,50.6
2022-09-23T04:39:00.340Z,50.5
2022-09-23T04:40:00.286Z,50.3
2022-09-23T04:41:00.318Z,50.2
2022-09-23T04:42:00.321Z,50.2
2022-09-23T04:43:00.482Z,50.5
2022-09-23T04:44:00.289Z,50.6
2022-09-23T04:45:00.302Z,50.7
2022-09-23T04:46:00.316Z,50.6
2022-09-23T04:47:00.429Z,49.8
2022-09-23T04:48:00.305Z,49.7
2022-09-23T04:49:00.496Z,49.4
2022-09-23T04:50:00.370Z,49.2
2022-09-23T04:51:00.375Z,49.1
2022-09-23T04:52:00.297Z,48.2
2022-09-23T04:53:00.304Z,48.2
2022-09-23T04:54:00.318Z,48.5
2022-09-23T04:55:00.460Z,48.6
2022-09-23T04:56:00.312Z,48.6
2022-09-23T04:57:00.315Z,48.5
2022-09-23T04:58:00.296Z,48.4
2022-09-23T04:59:00.347Z,48.2
2022-09-23T05:00:00.332Z,46.6
2022-09-23T05:01:05.124Z,42.3
2022-09-23T05:02:00.524Z,38.9
2022-09-23T05:03:00.298Z,36.7
2022-09-23T05:04:00.299Z,35.1
2022-09-23T05:05:00.299Z,33.5
2022-09-23T05:06:00.298Z,32.1
2022-09-23T05:07:03.225Z,28.9
2022-09-23T05:08:00.311Z,31.3
2022-09-23T05:09:00.393Z,33.8
2022-09-23T05:10:00.299Z,32.7
2022-09-23T05:11:00.307Z,30.3
2022-09-23T05:12:00.309Z,28.8
2022-09-23T05:13:00.441Z,27.7
2022-09-23T05:14:00.316Z,26.3
2022-09-23T05:15:00.310Z,25.7
2022-09-23T05:16:00.372Z,24.9
2022-09-23T05:17:00.462Z,23.9
2022-09-23T05:18:00.362Z,23.6
2022-09-23T05:19:00.524Z,22.8
2022-09-23T05:20:00.354Z,22.2
2022-09-23T05:21:00.332Z,22.4
2022-09-23T05:22:00.337Z,22.9
2022-09-23T05:23:00.336Z,22.1
2022-09-23T05:24:00.322Z,22.4
2022-09-23T05:25:00.482Z,22.7
2022-09-23T05:26:00.270Z,22.3
2022-09-23T05:27:00.294Z,21.9
2022-09-23T05:28:00.285Z,21.4
2022-09-23T05:29:00.518Z,22.7
2022-09-23T05:30:00.311Z,21.6
2022-09-23T05:31:00.538Z,20.6
2022-09-23T05:32:00.510Z,20.6
2022-09-23T05:33:00.309Z,20.2
2022-09-23T05:34:00.323Z,19.7
2022-09-23T05:35:00.338Z,18.9
2022-09-23T05:36:00.296Z,18.7
2022-09-23T05:37:00.402Z,17.6
2022-09-23T05:38:00.310Z,17.6
2022-09-23T05:39:00.491Z,17.8
2022-09-23T05:40:00.298Z,17.8
2022-09-23T05:41:00.337Z,18.0
2022-09-23T05:42:00.297Z,17.3
2022-09-23T05:43:00.426Z,17.1
2022-09-23T05:44:00.435Z,17.3
2022-09-23T05:45:00.453Z,16.7
2022-09-23T05:46:01.631Z,16.8
2022-09-23T05:47:00.628Z,16.5
2022-09-23T05:48:00.343Z,16.5
2022-09-23T05:49:03.081Z,16.4
2022-09-23T05:50:00.861Z,16.1
2022-09-23T05:51:00.365Z,15.9
2022-09-23T05:52:00.377Z,15.9
2022-09-23T05:53:00.304Z,16.1
2022-09-23T05:54:00.438Z,16.1
2022-09-23T05:55:00.487Z,16.8
2022-09-23T05:56:00.316Z,16.0
2022-09-23T05:57:02.770Z,17.5
2022-09-23T05:58:00.291Z,16.3
2022-09-23T05:59:00.427Z,15.4
2022-09-23T06:00:00.314Z,14.9
2022-09-23T06:01:00.463Z,14.5
2022-09-23T06:02:00.514Z,14.2
2022-09-23T06:03:00.491Z,14.1
2022-09-23T06:04:00.330Z,13.0
2022-09-23T06:05:00.296Z,13.0
2022-09-23T06:06:00.298Z,13.7
2022-09-23T06:07:03.467Z,13.4
2022-09-23T06:08:00.301Z,12.9
2022-09-23T06:09:00.432Z,13.1
2022-09-23T06:10:00.318Z,13.5
2022-09-23T06:11:00.282Z,13.5
2022-09-23T06:12:00.325Z,13.3
2022-09-23T06:13:00.484Z,13.3
2022-09-23T06:14:00.309Z,13.0
2022-09-23T06:15:00.290Z,13.3
2022-09-23T06:16:00.342Z,13.4
2022-09-23T06:17:00.292Z,13.2
2022-09-23T06:18:00.447Z,12.7
2022-09-23T06:19:04.533Z,12.2
2022-09-23T06:20:00.299Z,11.5
2022-09-23T06:21:00.296Z,11.5
2022-09-23T06:22:00.345Z,11.3
2022-09-23T06:23:00.338Z,11.5
2022-09-23T06:24:00.362Z,11.0
2022-09-23T06:25:00.425Z,11.0
2022-09-23T06:26:00.390Z,11.7
2022-09-23T06:27:00.356Z,11.1
2022-09-23T06:28:00.297Z,11.4
2022-09-23T06:29:00.307Z,11.1
2022-09-23T06:30:00.308Z,10.5
2022-09-23T06:31:00.479Z,10.3
2022-09-23T06:32:00.363Z,10.2
2022-09-23T06:33:00.553Z,10.4
2022-09-23T06:34:08.480Z,11.2
2022-09-23T06:35:00.312Z,11.2
2022-09-23T06:36:00.298Z,10.9
2022-09-23T06:37:08.330Z,10.6
2022-09-23T06:38:00.304Z,10.4
2022-09-23T06:39:00.317Z,10.0
2022-09-23T06:40:00.281Z,9.8
2022-09-23T06:41:00.359Z,9.8
2022-09-23T06:42:00.338Z,9.7
2022-09-23T06:43:00.445Z,9.6
2022-09-23T06:44:00.353Z,10.5
2022-09-23T06:45:00.466Z,10.3
2022-09-23T06:46:00.366Z,9.5
2022-09-23T06:47:00.549Z,9.7
2022-09-23T06:48:00.526Z,9.6
2022-09-23T06:49:00.526Z,9.4
2022-09-23T06:50:00.309Z,12.3
2022-09-23T06:51:00.283Z,15.5
2022-09-23T06:52:00.418Z,13.4
2022-09-23T06:53:00.273Z,11.2
2022-09-23T06:54:00.416Z,13.7
2022-09-23T06:55:00.468Z,14.5
2022-09-23T06:56:00.333Z,11.9
2022-09-23T06:57:00.301Z,10.9
2022-09-23T06:58:00.314Z,12.5
2022-09-23T06:59:00.306Z,11.8
2022-09-23T07:00:00.283Z,10.5
2022-09-23T07:01:00.507Z,12.3
2022-09-23T07:02:00.546Z,15.2
2022-09-23T07:03:00.418Z,16.3
2022-09-23T07:04:00.697Z,15.4
2022-09-23T07:05:00.321Z,14.1
2022-09-23T07:06:00.384Z,12.3
2022-09-23T07:07:00.493Z,11.1
2022-09-23T07:08:00.348Z,10.0
2022-09-23T07:09:00.335Z,9.4
2022-09-23T07:10:00.305Z,8.7
2022-09-23T07:11:00.280Z,8.4
2022-09-23T07:12:00.322Z,8.1
2022-09-23T07:13:00.444Z,8.1
2022-09-23T07:14:00.381Z,7.5
2022-09-23T07:15:00.317Z,7.5
2022-09-23T07:16:00.423Z,8.8
2022-09-23T07:17:00.346Z,8.7
2022-09-23T07:18:00.389Z,8.6
2022-09-23T07:19:00.520Z,8.5
2022-09-23T07:20:00.365Z,8.6
2022-09-23T07:21:00.316Z,8.5
2022-09-23T07:22:00.307Z,9.5
2022-09-23T07:23:00.306Z,10.1
2022-09-23T07:24:00.313Z,9.4
2022-09-23T07:25:00.525Z,12.8
2022-09-23T07:26:00.321Z,15.2
2022-09-23T07:27:00.308Z,13.0
2022-09-23T07:28:00.279Z,14.3
2022-09-23T07:29:00.294Z,16.5
2022-09-23T07:30:00.303Z,18.0
2022-09-23T07:31:01.038Z,15.4
2022-09-23T07:32:10.056Z,14.9
2022-09-23T07:33:00.400Z,12.5
2022-09-23T07:34:00.457Z,11.9
2022-09-23T07:35:00.611Z,11.1
2022-09-23T07:36:00.296Z,12.3
2022-09-23T07:37:00.368Z,13.0
2022-09-23T07:38:00.285Z,11.9
2022-09-23T07:39:00.300Z,13.7
2022-09-23T07:40:00.302Z,13.6
2022-09-23T07:41:00.305Z,11.1
2022-09-23T07:42:00.313Z,10.6
2022-09-23T07:43:00.447Z,9.4
2022-09-23T07:44:00.306Z,8.7
2022-09-23T07:45:00.314Z,8.6
2022-09-23T07:46:00.389Z,8.9
2022-09-23T07:47:00.392Z,8.3
2022-09-23T07:48:00.329Z,8.2
2022-09-23T07:49:00.533Z,7.6
2022-09-23T07:50:00.382Z,8.4
2022-09-23T07:51:00.349Z,8.4
2022-09-23T07:52:00.350Z,8.5
2022-09-23T07:53:00.311Z,8.5
2022-09-23T07:54:00.324Z,8.3
2022-09-23T07:55:00.467Z,8.1
2022-09-23T07:56:00.381Z,8.1
2022-09-23T07:57:00.314Z,7.9
2022-09-23T07:58:00.305Z,7.7
2022-09-23T07:59:00.788Z,7.2
2022-09-23T08:00:00.285Z,7.3
2022-09-23T08:01:00.565Z,6.8
2022-09-23T08:02:00.369Z,7.1
2022-09-23T08:03:00.385Z,6.9
2022-09-23T08:04:00.325Z,7.1
2022-09-23T08:05:00.482Z,6.8
2022-09-23T08:06:00.313Z,7.1
2022-09-23T08:07:00.445Z,7.6
2022-09-23T08:08:00.275Z,8.1
2022-09-23T08:09:00.412Z,8.0
2022-09-23T08:10:00.312Z,8.4
2022-09-23T08:11:00.285Z,8.9
2022-09-23T08:12:00.309Z,9.1
2022-09-23T08:13:00.437Z,8.9
2022-09-23T08:14:00.299Z,8.4
2022-09-23T08:15:00.294Z,8.4
2022-09-23T08:16:00.407Z,8.5
2022-09-23T08:17:00.283Z,8.4
2022-09-23T08:18:00.290Z,8.4
2022-09-23T08:19:00.620Z,8.4
2022-09-23T08:20:00.332Z,8.0
2022-09-23T08:21:00.293Z,7.8
2022-09-23T08:22:00.294Z,7.5
2022-09-23T08:23:00.310Z,7.5
2022-09-23T08:24:00.401Z,7.2
2022-09-23T08:25:00.445Z,7.0
2022-09-23T08:26:00.298Z,7.1
2022-09-23T08:27:00.334Z,7.2
2022-09-23T08:28:00.285Z,7.3
2022-09-23T08:29:00.316Z,7.1
2022-09-23T08:30:00.319Z,7.1
2022-09-23T08:31:00.506Z,7.3
2022-09-23T08:32:00.319Z,7.2
2022-09-23T08:33:00.315Z,7.0
2022-09-23T08:34:00.398Z,7.2
2022-09-23T08:35:00.397Z,7.2
2022-09-23T08:36:00.374Z,6.9
2022-09-23T08:37:00.370Z,7.3
2022-09-23T08:38:00.311Z,7.7
2022-09-23T08:39:00.304Z,7.9
2022-09-23T08:40:00.314Z,7.6
2022-09-23T08:41:00.318Z,7.7
2022-09-23T08:42:00.302Z,7.9
2022-09-23T08:43:00.580Z,8.0
2022-09-23T08:44:00.308Z,7.7
2022-09-23T08:45:00.277Z,7.5
2022-09-23T08:46:00.309Z,7.2
2022-09-23T08:48:00.316Z,7.3
2022-09-23T08:49:00.606Z,7.5
2022-09-23T08:50:00.343Z,7.6
2022-09-23T08:51:00.555Z,7.5
2022-09-23T08:52:00.569Z,7.3
2022-09-23T08:53:00.319Z,7.1
2022-09-23T08:54:00.319Z,7.1
2022-09-23T08:55:00.470Z,7.2
2022-09-23T08:56:00.418Z,7.2
2022-09-23T08:57:00.367Z,6.9
2022-09-23T08:58:23.982Z,7.0
2022-09-23T08:59:00.286Z,7.5
2022-09-23T09:00:00.365Z,7.3
2022-09-23T09:01:00.553Z,7.7
2022-09-23T09:02:00.308Z,7.8
2022-09-23T09:03:00.296Z,7.7
2022-09-23T09:04:00.418Z,7.7
2022-09-23T09:05:00.310Z,7.7
2022-09-23T09:06:00.309Z,8.0
2022-09-23T09:07:24.607Z,8.6
2022-09-23T09:08:00.523Z,9.0
2022-09-23T09:09:00.378Z,9.0
2022-09-23T09:10:00.288Z,8.8
2022-09-23T09:11:00.298Z,8.7
2022-09-23T09:12:00.304Z,8.5
2022-09-23T09:13:00.408Z,8.4
2022-09-23T09:14:00.420Z,8.4
2022-09-23T09:15:00.293Z,8.9
2022-09-23T09:16:00.323Z,8.9
2022-09-23T09:17:01.089Z,8.9
2022-09-23T09:18:00.294Z,8.9
2022-09-23T09:19:00.554Z,9.0
2022-09-23T09:20:00.309Z,8.8
2022-09-23T09:21:00.286Z,8.7
2022-09-23T09:22:00.314Z,8.7
2022-09-23T09:23:00.448Z,8.7
2022-09-23T09:24:00.538Z,9.5
2022-09-23T09:25:00.422Z,9.2
2022-09-23T09:26:00.300Z,9.2
2022-09-23T09:27:00.318Z,9.1
2022-09-23T09:28:00.326Z,8.9
2022-09-23T09:29:23.459Z,8.7
2022-09-23T09:30:00.301Z,8.6
2022-09-23T09:31:00.478Z,8.5
2022-09-23T09:32:00.296Z,8.7
2022-09-23T09:33:00.300Z,9.0
2022-09-23T09:34:00.325Z,9.2
2022-09-23T09:35:00.345Z,9.1
2022-09-23T09:36:00.309Z,9.0
2022-09-23T09:37:06.156Z,9.2
2022-09-23T09:38:00.446Z,9.1
2022-09-23T09:39:00.505Z,9.3
2022-09-23T09:40:00.277Z,9.3
2022-09-23T09:41:00.329Z,9.9
2022-09-23T09:42:00.375Z,10.2
2022-09-23T09:43:00.470Z,10.1
2022-09-23T09:44:00.433Z,9.8
2022-09-23T09:45:00.301Z,9.6
2022-09-23T09:46:00.353Z,9.4
2022-09-23T09:47:00.451Z,9.5
2022-09-23T09:48:00.399Z,9.4
2022-09-23T09:49:00.687Z,9.6
2022-09-23T09:50:00.389Z,9.7
2022-09-23T09:51:00.329Z,9.6
2022-09-23T09:52:00.335Z,9.4
2022-09-23T09:53:00.395Z,9.0
2022-09-23T09:54:00.278Z,9.1
2022-09-23T09:55:00.420Z,9.1
2022-09-23T09:56:04.615Z,9.3
2022-09-23T09:57:00.292Z,9.1
2022-09-23T09:58:00.276Z,9.2
2022-09-23T09:59:00.330Z,9.5
2022-09-23T10:00:00.346Z,9.9
2022-09-23T10:01:00.586Z,10.0
2022-09-23T10:02:00.310Z,10.1
2022-09-23T10:03:00.238Z,10.2
2022-09-23T10:04:00.253Z,10.3
2022-09-23T10:05:00.253Z,10.5
2022-09-23T10:06:00.220Z,10.8
2022-09-23T10:07:00.389Z,11.0
2022-09-23T10:08:00.503Z,11.0
2022-09-23T10:09:00.347Z,10.8
2022-09-23T10:10:06.130Z,10.9
2022-09-23T10:11:00.280Z,11.3
2022-09-23T10:12:00.236Z,11.5
2022-09-23T10:13:00.426Z,11.7
2022-09-23T10:14:00.355Z,11.9
2022-09-23T10:15:00.264Z,12.0
2022-09-23T10:16:00.294Z,12.1
2022-09-23T10:17:00.406Z,12.4
2022-09-23T10:18:00.276Z,12.8
2022-09-23T10:19:00.453Z,13.5
2022-09-23T10:20:00.372Z,14.1
2022-09-23T10:21:00.246Z,14.8
2022-09-23T10:22:00.317Z,15.2
2022-09-23T10:23:00.387Z,15.6
2022-09-23T10:24:00.247Z,15.8
2022-09-23T10:25:00.368Z,15.2
2022-09-23T10:26:00.250Z,15.0
2022-09-23T10:27:00.251Z,15.4
2022-09-23T10:28:02.653Z,15.5
2022-09-23T10:29:00.273Z,15.7
2022-09-23T10:30:00.242Z,15.9
2022-09-23T10:31:00.410Z,15.8
2022-09-23T10:32:00.230Z,15.9
2022-09-23T10:33:00.239Z,16.8
2022-09-23T10:34:00.262Z,18.0
2022-09-23T10:35:00.228Z,18.7
2022-09-23T10:36:00.254Z,19.8
2022-09-23T10:37:00.463Z,20.0
2022-09-23T10:38:00.470Z,20.1
2022-09-23T10:39:00.337Z,20.9
2022-09-23T10:40:00.259Z,21.2
2022-09-23T10:41:00.436Z,20.6
2022-09-23T10:42:00.249Z,20.1
2022-09-23T10:43:00.532Z,20.8
2022-09-23T10:44:00.276Z,20.9
2022-09-23T10:45:00.247Z,20.8
2022-09-23T10:46:00.271Z,20.8
2022-09-23T10:47:00.250Z,20.5
2022-09-23T10:48:00.274Z,20.4
2022-09-23T10:49:00.557Z,19.7
2022-09-23T10:50:00.237Z,20.6
2022-09-23T10:51:00.232Z,21.1
2022-09-23T10:52:00.259Z,21.3
2022-09-23T10:53:00.407Z,21.2
2022-09-23T10:54:00.331Z,21.4
2022-09-23T10:55:00.638Z,21.2
2022-09-23T10:56:00.268Z,21.0
2022-09-23T10:57:00.257Z,20.9
2022-09-23T10:58:00.260Z,20.6
2022-09-23T10:59:00.262Z,20.3
2022-09-23T11:00:00.256Z,20.5
2022-09-23T11:01:00.441Z,19.5
2022-09-23T11:02:00.261Z,19.9
2022-09-23T11:03:00.243Z,20.5
2022-09-23T11:04:00.323Z,20.3
2022-09-23T11:05:00.381Z,20.3
2022-09-23T11:06:00.331Z,19.7
2022-09-23T11:07:00.410Z,20.1
2022-09-23T11:08:00.370Z,20.0
2022-09-23T11:09:00.272Z,20.0
2022-09-23T11:10:00.262Z,19.7
2022-09-23T11:11:00.272Z,19.2
2022-09-23T11:12:00.361Z,19.1
2022-09-23T11:13:00.401Z,19.0
2022-09-23T11:14:00.264Z,18.7
2022-09-23T11:15:00.260Z,19.7
2022-09-23T11:16:00.253Z,19.8
2022-09-23T11:17:00.284Z,20.5
2022-09-23T11:18:00.261Z,20.6
2022-09-23T11:19:00.571Z,20.6
2022-09-23T11:20:00.275Z,20.8
2022-09-23T11:21:00.324Z,21.0
2022-09-23T11:22:00.264Z,20.9
2022-09-23T11:23:00.492Z,21.0
2022-09-23T11:24:00.463Z,21.0
2022-09-23T11:25:00.388Z,19.9
2022-09-23T11:26:00.258Z,20.3
2022-09-23T11:27:00.247Z,21.1
2022-09-23T11:28:00.272Z,21.2
2022-09-23T11:29:00.268Z,21.2
2022-09-23T11:30:00.271Z,21.3
2022-09-23T11:31:00.501Z,21.5
2022-09-23T11:32:00.274Z,21.1
2022-09-23T11:33:00.344Z,21.2
2022-09-23T11:34:00.297Z,21.4
2022-09-23T11:35:00.288Z,21.3
2022-09-23T11:36:00.266Z,20.6
2022-09-23T11:37:00.512Z,20.5
2022-09-23T11:38:00.265Z,20.3
2022-09-23T11:39:00.414Z,20.1
2022-09-23T11:40:00.329Z,20.3
2022-09-23T11:41:00.463Z,20.3
2022-09-23T11:42:00.291Z,20.4
2022-09-23T11:43:00.540Z,20.5
2022-09-23T11:44:00.283Z,20.9
2022-09-23T11:45:00.271Z,21.1
2022-09-23T11:46:00.296Z,21.1
2022-09-23T11:47:00.311Z,21.3
2022-09-23T11:48:00.272Z,21.5
2022-09-23T11:49:00.427Z,21.5
2022-09-23T11:50:00.257Z,21.6
2022-09-23T11:51:00.283Z,21.5
2022-09-23T11:52:00.392Z,21.4
2022-09-23T11:53:00.281Z,21.5
2022-09-23T11:54:00.476Z,21.6
2022-09-23T11:55:02.511Z,21.8
2022-09-23T11:56:00.306Z,21.7
2022-09-23T11:57:00.353Z,21.6
2022-09-23T11:58:00.309Z,21.5
2022-09-23T11:59:00.592Z,21.6
2022-09-23T12:00:00.415Z,21.6
2022-09-23T12:01:01.445Z,21.7
2022-09-23T12:02:06.959Z,21.7
2022-09-23T12:03:05.638Z,21.9
2022-09-23T12:04:08.592Z,21.8
2022-09-23T12:05:00.487Z,22.1
2022-09-23T12:06:00.473Z,22.2
2022-09-23T12:07:00.439Z,22.2
2022-09-23T12:08:00.314Z,22.2
2022-09-23T12:09:00.690Z,21.9
2022-09-23T12:10:00.315Z,21.6
2022-09-23T12:11:00.299Z,21.8
2022-09-23T12:12:00.424Z,22.3
2022-09-23T12:13:00.644Z,22.5
2022-09-23T12:14:00.707Z,22.4
2022-09-23T12:15:00.291Z,22.3
2022-09-23T12:16:00.295Z,22.1
2022-09-23T12:17:00.407Z,22.5
2022-09-23T12:18:00.325Z,22.6
2022-09-23T12:19:00.544Z,22.9
2022-09-23T12:20:00.380Z,23.0
2022-09-23T12:21:00.341Z,23.0
2022-09-23T12:22:00.255Z,23.1
2022-09-23T12:23:00.431Z,23.3
2022-09-23T12:24:00.692Z,23.3
2022-09-23T12:25:00.512Z,23.1
2022-09-23T12:26:00.395Z,22.8
2022-09-23T12:27:00.386Z,23.0
2022-09-23T12:28:00.355Z,23.0
2022-09-23T12:29:00.325Z,23.0
2022-09-23T12:30:00.381Z,22.9
2022-09-23T12:31:00.664Z,22.7
2022-09-23T12:32:00.384Z,22.2
2022-09-23T12:33:00.481Z,21.3
2022-09-23T12:34:00.392Z,21.7
2022-09-23T12:35:00.268Z,22.4
2022-09-23T12:36:00.398Z,22.6
2022-09-23T12:37:00.591Z,22.4
2022-09-23T12:38:00.492Z,22.1
2022-09-23T12:39:00.612Z,22.4
2022-09-23T12:40:00.385Z,22.8
2022-09-23T12:41:00.517Z,23.0
2022-09-23T12:42:00.448Z,22.8
2022-09-23T12:43:00.610Z,22.6
2022-09-23T12:44:00.501Z,21.7
2022-09-23T12:45:00.355Z,21.8
2022-09-23T12:46:00.450Z,22.0
2022-09-23T12:47:00.488Z,21.9
2022-09-23T12:48:00.504Z,22.1
2022-09-23T12:49:00.498Z,21.8
2022-09-23T12:50:00.501Z,20.8
2022-09-23T12:51:00.453Z,21.0
2022-09-23T12:52:00.297Z,21.3
2022-09-23T12:53:00.325Z,21.3
2022-09-23T12:54:00.719Z,20.8
2022-09-23T12:55:00.541Z,21.1
2022-09-23T12:56:00.447Z,21.2
2022-09-23T12:57:00.577Z,21.7
2022-09-23T12:58:00.471Z,21.5
2022-09-23T12:59:00.426Z,21.6
2022-09-23T13:00:00.357Z,22.0
2022-09-23T13:01:00.744Z,21.6
2022-09-23T13:02:00.513Z,21.6
2022-09-23T13:03:00.328Z,21.0
2022-09-23T13:04:00.312Z,21.6
2022-09-23T13:05:00.622Z,20.7
2022-09-23T13:06:00.497Z,20.9
2022-09-23T13:07:00.813Z,21.1
2022-09-23T13:08:00.483Z,21.4
2022-09-23T13:09:00.677Z,21.1
2022-09-23T13:10:00.826Z,21.1
2022-09-23T13:11:00.369Z,20.7
2022-09-23T13:12:00.583Z,21.1
2022-09-23T13:13:00.670Z,21.1
2022-09-23T13:14:00.569Z,21.2
2022-09-23T13:15:00.553Z,20.9
2022-09-23T13:16:00.735Z,20.8
2022-09-23T13:17:00.352Z,21.0
2022-09-23T13:18:00.359Z,21.3
2022-09-23T13:19:00.551Z,21.7
2022-09-23T13:20:00.280Z,21.8
2022-09-23T13:21:00.265Z,21.8
2022-09-23T13:22:00.272Z,21.8
2022-09-23T13:23:00.375Z,21.8
2022-09-23T13:24:00.442Z,22.1